Terminal Aerodrome Forecast
Issued by NWS Omaha/Valley, NE

Home | Current Version | Previous Version | Text Only | Print | Product List | Glossary On
Versions: 1 2 3 4 5 6 7 8 9 10 11 12 13 14 15 16 17 18 19
000
FTUS43 KOAX 291517 AAA
TAFOFK
TAF AMD
KOFK 291517Z 2915/3012 04010KT P6SM OVC015
      TEMPO 2915/2917 BKN008 OVC015
     FM292200 06010KT P6SM VCSH OVC025
     FM300400 06012KT P6SM -SHRA OVC015
     FM300600 06014G23KT P6SM -SHRA OVC015
      TEMPO 3010/3012 4SM -SHRA BR OVC007=

USA.gov is the U.S. government's official web portal to all federal, state and local government web resources and services.